createdAt,value
2019-02-26T00:02:02.578Z,31.17
2019-02-26T00:04:35.039Z,28.60
2019-02-26T00:07:05.587Z,26.12
2019-02-26T00:09:35.289Z,31.27
2019-02-26T00:12:07.198Z,28.85
2019-02-26T00:14:36.263Z,30.57
2019-02-26T00:17:10.749Z,29.00
2019-02-26T00:19:40.632Z,29.65
2019-02-26T00:22:13.864Z,33.53
2019-02-26T00:24:44.388Z,32.98
2019-02-26T00:27:16.679Z,32.25
2019-02-26T00:29:51.365Z,33.92
2019-02-26T00:32:21.462Z,29.75
2019-02-26T00:34:53.152Z,30.68
2019-02-26T00:37:28.507Z,30.10
2019-02-26T00:39:57.722Z,29.75
2019-02-26T00:42:29.400Z,30.40
2019-02-26T00:45:01.023Z,31.93
2019-02-26T00:47:34.449Z,27.93
2019-02-26T00:54:06.764Z,29.82
2019-02-26T00:56:38.547Z,32.50
2019-02-26T00:59:07.725Z,34.10
2019-02-26T01:01:39.894Z,30.97
2019-02-26T01:04:08.878Z,32.45
2019-02-26T01:06:39.682Z,29.50
2019-02-26T01:09:11.246Z,30.52
2019-02-26T01:11:40.697Z,30.68
2019-02-26T01:14:09.730Z,30.25
2019-02-26T01:16:39.452Z,32.58
2019-02-26T01:19:10.914Z,28.98
2019-02-26T01:25:13.448Z,32.05
2019-02-26T01:27:47.602Z,31.42
2019-02-26T01:30:21.161Z,32.50
2019-02-26T01:32:46.568Z,35.13
2019-02-26T01:35:15.571Z,30.48
2019-02-26T01:37:49.360Z,29.15
2019-02-26T01:40:21.112Z,32.67
2019-02-26T01:42:52.212Z,31.60
2019-02-26T01:45:21.753Z,31.75
2019-02-26T01:47:52.794Z,35.85
2019-02-26T01:50:24.695Z,39.13
2019-02-26T01:52:58.669Z,39.10
2019-02-26T01:55:28.571Z,37.38
2019-02-26T01:58:03.205Z,38.38
2019-02-26T02:00:33.817Z,37.03
2019-02-26T02:03:05.685Z,35.20
2019-02-26T02:05:40.283Z,35.90
2019-02-26T02:08:13.079Z,34.45
2019-02-26T02:10:40.790Z,36.93
2019-02-26T02:13:11.363Z,37.63
2019-02-26T02:15:44.232Z,36.42
2019-02-26T02:18:14.529Z,35.30
2019-02-26T02:20:48.588Z,38.98
2019-02-26T02:23:23.481Z,36.88
2019-02-26T02:25:53.885Z,34.33
2019-02-26T02:28:23.940Z,34.00
2019-02-26T02:30:55.763Z,33.53
2019-02-26T02:33:26.769Z,36.93
2019-02-26T02:36:02.233Z,34.00
2019-02-26T02:38:36.464Z,36.63
2019-02-26T02:41:04.480Z,31.85
2019-02-26T02:43:36.840Z,36.10
2019-02-26T02:46:05.812Z,32.28
2019-02-26T02:48:34.858Z,35.05
2019-02-26T02:51:07.846Z,34.58
2019-02-26T02:53:37.579Z,30.52
2019-02-26T02:56:12.412Z,34.70
2019-02-26T02:58:41.823Z,32.48
2019-02-26T03:01:16.504Z,34.38
2019-02-26T03:03:50.282Z,35.15
2019-02-26T03:06:17.038Z,32.20
2019-02-26T03:08:47.971Z,32.42
2019-02-26T03:11:18.615Z,32.42
2019-02-26T03:13:51.213Z,30.25
2019-02-26T03:16:33.798Z,31.35
2019-02-26T03:19:06.703Z,32.45
2019-02-26T03:21:35.310Z,31.87
2019-02-26T03:24:08.635Z,31.75
2019-02-26T03:26:41.968Z,38.63
2019-02-26T03:29:10.930Z,34.10
2019-02-26T03:31:45.299Z,32.08
2019-02-26T03:34:15.743Z,38.25
2019-02-26T03:36:45.643Z,44.65
2019-02-26T03:39:14.194Z,37.05
2019-02-26T03:41:48.476Z,38.40
2019-02-26T03:44:17.424Z,45.15
2019-02-26T03:46:50.702Z,37.42
2019-02-26T03:49:19.726Z,34.80
2019-02-26T03:51:49.396Z,33.48
2019-02-26T03:54:18.356Z,31.70
2019-02-26T03:56:47.621Z,32.83
2019-02-26T03:59:16.577Z,32.42
2019-02-26T04:01:48.352Z,30.80
2019-02-26T04:04:20.444Z,32.38
2019-02-26T04:06:47.987Z,31.82
2019-02-26T04:09:23.138Z,35.98
2019-02-26T04:11:53.408Z,35.38
2019-02-26T04:14:26.367Z,33.50
2019-02-26T04:16:56.092Z,35.40
2019-02-26T04:19:26.903Z,33.98
2019-02-26T04:22:20.897Z,37.40
2019-02-26T04:24:50.108Z,33.33
2019-02-26T04:27:33.512Z,35.25
2019-02-26T04:30:20.816Z,30.50
2019-02-26T04:33:11.641Z,32.28
2019-02-26T04:35:45.871Z,35.50
2019-02-26T04:38:18.158Z,33.75
2019-02-26T04:40:48.981Z,36.13
2019-02-26T04:43:27.381Z,34.70
2019-02-26T04:46:02.263Z,38.40
2019-02-26T04:48:38.620Z,34.13
2019-02-26T04:51:10.423Z,32.53
2019-02-26T04:53:41.304Z,33.73
2019-02-26T04:56:15.002Z,32.58
2019-02-26T04:58:45.909Z,35.13
2019-02-26T05:01:18.939Z,35.48
2019-02-26T05:03:50.474Z,35.75
2019-02-26T05:06:25.504Z,36.73
2019-02-26T05:08:59.339Z,35.98
2019-02-26T05:11:31.674Z,38.23
2019-02-26T05:13:57.462Z,42.58
2019-02-26T05:16:29.495Z,39.42
2019-02-26T05:19:02.062Z,36.40
2019-02-26T05:21:35.368Z,43.55
2019-02-26T05:24:07.374Z,40.98
2019-02-26T05:26:39.406Z,38.38
2019-02-26T05:29:11.667Z,40.48
2019-02-26T05:31:43.037Z,42.13
2019-02-26T05:34:12.449Z,35.17
2019-02-26T05:36:46.203Z,37.78
2019-02-26T05:39:23.736Z,35.65
2019-02-26T05:41:54.855Z,36.73
2019-02-26T05:44:26.126Z,38.60
2019-02-26T05:46:58.873Z,38.90
2019-02-26T05:49:31.546Z,41.98
2019-02-26T05:52:01.592Z,40.60
2019-02-26T05:54:30.374Z,41.98
2019-02-26T05:57:01.882Z,39.10
2019-02-26T05:59:33.694Z,39.40
2019-02-26T06:02:02.742Z,36.42
2019-02-26T06:04:32.530Z,35.40
2019-02-26T06:07:04.753Z,37.40
2019-02-26T06:09:35.086Z,39.25
2019-02-26T06:14:36.354Z,40.45
2019-02-26T06:17:10.653Z,40.00
2019-02-26T06:19:44.978Z,39.85
2019-02-26T06:22:16.951Z,36.25
2019-02-26T06:24:44.878Z,40.20
2019-02-26T06:27:16.630Z,40.95
2019-02-26T06:29:44.573Z,44.50
2019-02-26T06:32:14.630Z,41.25
2019-02-26T06:37:16.415Z,38.38
2019-02-26T06:39:50.538Z,40.98
2019-02-26T06:42:17.886Z,40.52
2019-02-26T06:44:48.905Z,42.27
2019-02-26T06:47:17.522Z,44.05
2019-02-26T06:49:48.427Z,41.40
2019-02-26T06:52:20.453Z,43.28
2019-02-26T06:54:57.312Z,38.53
2019-02-26T06:57:44.005Z,38.53
2019-02-26T07:00:21.502Z,42.38
2019-02-26T07:02:49.341Z,40.92
2019-02-26T07:05:25.976Z,38.55
2019-02-26T07:07:57.148Z,39.95
2019-02-26T07:10:29.517Z,43.05
2019-02-26T07:13:02.154Z,41.33
2019-02-26T07:15:32.303Z,41.63
2019-02-26T07:18:04.452Z,42.83
2019-02-26T07:20:34.260Z,44.58
2019-02-26T07:23:03.899Z,41.37
2019-02-26T07:25:38.880Z,42.90
2019-02-26T07:28:12.558Z,42.65
2019-02-26T07:30:44.143Z,44.70
2019-02-26T07:33:14.981Z,43.52
2019-02-26T07:35:46.168Z,40.80
2019-02-26T07:38:20.729Z,44.13
2019-02-26T07:40:51.163Z,36.95
2019-02-26T07:43:22.513Z,41.88
2019-02-26T07:45:53.156Z,41.98
2019-02-26T07:48:23.726Z,43.17
2019-02-26T07:50:53.286Z,44.65
2019-02-26T07:53:26.489Z,40.07
2019-02-26T07:55:58.820Z,43.68
2019-02-26T07:58:30.917Z,48.05
2019-02-26T08:01:01.267Z,43.92
2019-02-26T08:03:32.141Z,46.18
2019-02-26T08:06:06.176Z,43.58
2019-02-26T08:08:34.699Z,44.48
2019-02-26T08:11:03.890Z,47.75
2019-02-26T08:13:34.006Z,48.73
2019-02-26T08:16:05.134Z,43.78
2019-02-26T08:18:34.294Z,43.70
2019-02-26T08:21:05.032Z,47.15
2019-02-26T08:23:33.972Z,46.77
2019-02-26T08:26:07.430Z,46.37
2019-02-26T08:28:38.898Z,46.30
2019-02-26T08:31:11.197Z,41.83
2019-02-26T08:33:38.860Z,42.35
2019-02-26T08:36:08.024Z,42.93
2019-02-26T08:38:36.971Z,46.80
2019-02-26T08:41:06.013Z,43.85
2019-02-26T08:43:35.056Z,47.48
2019-02-26T08:46:04.094Z,45.03
2019-02-26T08:51:05.431Z,45.08
2019-02-26T08:53:34.408Z,46.77
2019-02-26T08:56:04.066Z,45.17
2019-02-26T08:58:41.118Z,44.98
2019-02-26T09:01:10.280Z,41.05
2019-02-26T09:03:42.114Z,41.83
2019-02-26T09:06:13.583Z,45.33
2019-02-26T09:08:43.103Z,43.05
2019-02-26T09:11:14.120Z,44.45
2019-02-26T09:13:43.982Z,46.48
2019-02-26T09:16:21.792Z,46.80
2019-02-26T09:18:51.638Z,44.98
2019-02-26T09:21:34.640Z,42.20
2019-02-26T09:24:05.471Z,47.48
2019-02-26T09:26:34.686Z,44.83
2019-02-26T09:29:05.418Z,49.30
2019-02-26T09:31:34.428Z,45.55
2019-02-26T09:34:04.668Z,45.25
2019-02-26T09:36:34.211Z,41.73
2019-02-26T09:39:08.791Z,44.03
2019-02-26T09:41:43.359Z,42.98
2019-02-26T09:44:12.854Z,41.23
2019-02-26T09:49:13.114Z,43.75
2019-02-26T09:51:43.321Z,44.38
2019-02-26T09:54:17.220Z,45.12
2019-02-26T09:56:47.299Z,44.95
2019-02-26T09:59:17.474Z,42.27
2019-02-26T10:01:49.513Z,44.33
2019-02-26T10:04:19.776Z,45.05
2019-02-26T10:06:50.857Z,43.87
2019-02-26T10:09:24.790Z,43.70
2019-02-26T10:11:55.502Z,44.30
2019-02-26T10:14:26.376Z,42.00
2019-02-26T10:16:58.425Z,42.03
2019-02-26T10:19:27.403Z,37.98
2019-02-26T10:21:57.280Z,35.23
2019-02-26T10:24:30.236Z,39.60
2019-02-26T10:27:03.165Z,36.70
2019-02-26T10:29:39.840Z,34.73
2019-02-26T10:32:11.225Z,36.23
2019-02-26T10:34:40.310Z,40.90
2019-02-26T10:37:09.277Z,35.50
2019-02-26T10:39:38.323Z,34.80
2019-02-26T10:42:07.294Z,35.33
2019-02-26T10:44:36.276Z,36.38
2019-02-26T10:47:07.173Z,33.80
2019-02-26T10:49:40.699Z,36.03
2019-02-26T10:52:16.552Z,35.20
2019-02-26T10:54:46.617Z,33.13
2019-02-26T10:57:17.245Z,29.40
2019-02-26T10:59:46.220Z,31.30
2019-02-26T11:02:17.823Z,33.80
2019-02-26T11:04:52.564Z,30.23
2019-02-26T11:07:26.426Z,31.85
2019-02-26T11:09:58.848Z,30.25
2019-02-26T11:12:34.042Z,28.40
2019-02-26T11:15:06.746Z,29.02
2019-02-26T11:17:38.414Z,29.32
2019-02-26T11:20:10.587Z,26.90
2019-02-26T11:22:47.196Z,30.48
2019-02-26T11:25:22.307Z,28.35
2019-02-26T11:27:50.690Z,31.60
2019-02-26T11:30:23.105Z,26.57
2019-02-26T11:32:56.195Z,26.05
2019-02-26T11:35:24.454Z,25.05
2019-02-26T11:37:54.949Z,20.80
2019-02-26T11:40:27.643Z,18.50
2019-02-26T11:42:59.646Z,21.20
2019-02-26T11:45:34.646Z,20.80
2019-02-26T11:48:03.732Z,18.85
2019-02-26T11:50:34.707Z,20.95
2019-02-26T11:55:40.394Z,21.90
2019-02-26T11:58:10.832Z,17.30
2019-02-26T12:00:50.694Z,15.98
2019-02-26T12:03:27.207Z,20.23
2019-02-26T12:05:56.665Z,17.23
2019-02-26T12:08:26.214Z,15.20
2019-02-26T12:10:58.008Z,18.80
2019-02-26T12:13:47.346Z,16.70
2019-02-26T12:16:18.976Z,18.40
2019-02-26T12:18:47.949Z,15.32
2019-02-26T12:21:20.600Z,16.75
2019-02-26T12:23:50.316Z,17.45
2019-02-26T12:26:27.695Z,14.90
2019-02-26T12:28:57.749Z,14.60
2019-02-26T12:31:31.214Z,16.75
2019-02-26T12:33:58.714Z,19.87
2019-02-26T12:36:32.514Z,19.57
2019-02-26T12:42:39.572Z,18.17
2019-02-26T12:45:13.737Z,16.32
2019-02-26T12:47:48.709Z,15.50
2019-02-26T12:50:20.195Z,16.97
2019-02-26T12:52:51.605Z,14.75
2019-02-26T12:55:22.703Z,13.93
2019-02-26T12:57:56.140Z,13.20
2019-02-26T13:00:24.551Z,12.15
2019-02-26T13:02:53.517Z,14.68
2019-02-26T13:05:23.118Z,13.63
2019-02-26T13:07:53.540Z,10.58
2019-02-26T13:10:27.057Z,17.57
2019-02-26T13:13:00.183Z,15.75
2019-02-26T13:15:30.184Z,14.03
2019-02-26T13:17:59.167Z,16.77
2019-02-26T13:20:31.325Z,15.43
2019-02-26T13:23:16.320Z,14.50
2019-02-26T13:25:31.081Z,14.18
2019-02-26T13:28:00.081Z,15.63
2019-02-26T13:30:31.822Z,13.57
2019-02-26T13:33:05.022Z,13.32
2019-02-26T13:35:31.967Z,14.93
2019-02-26T13:38:02.841Z,14.15
2019-02-26T13:40:38.472Z,16.52
2019-02-26T13:43:09.132Z,13.15
2019-02-26T13:45:42.424Z,15.80
2019-02-26T13:48:17.761Z,15.60
2019-02-26T13:50:48.310Z,14.87
2019-02-26T13:53:17.273Z,13.70
2019-02-26T13:55:49.447Z,14.80
2019-02-26T13:58:18.417Z,17.55
2019-02-26T14:00:47.467Z,19.95
2019-02-26T14:03:20.203Z,14.68
2019-02-26T14:05:50.705Z,17.60
2019-02-26T14:08:21.279Z,19.00
2019-02-26T14:10:50.299Z,16.17
2019-02-26T14:13:22.450Z,18.20
2019-02-26T14:15:53.046Z,21.55
2019-02-26T14:18:26.105Z,20.90
2019-02-26T14:20:56.563Z,25.60
2019-02-26T14:23:26.174Z,20.32
2019-02-26T14:25:55.203Z,19.00
2019-02-26T14:28:25.961Z,18.55
2019-02-26T14:30:54.916Z,18.10
2019-02-26T14:33:34.818Z,23.70
2019-02-26T14:36:08.035Z,19.40
2019-02-26T14:38:37.007Z,18.90
2019-02-26T14:41:07.593Z,17.55
2019-02-26T14:43:39.784Z,23.40
2019-02-26T14:46:08.828Z,17.48
2019-02-26T14:48:41.219Z,22.35
2019-02-26T14:51:12.356Z,21.50
2019-02-26T14:53:45.397Z,21.52
2019-02-26T14:56:17.490Z,18.27
2019-02-26T14:58:48.438Z,18.48
2019-02-26T15:01:17.588Z,21.23
2019-02-26T15:03:48.494Z,18.90
2019-02-26T15:06:17.464Z,22.62
2019-02-26T15:12:13.256Z,18.87
2019-02-26T15:14:44.620Z,20.27
2019-02-26T15:17:13.664Z,18.62
2019-02-26T15:19:49.659Z,18.50
2019-02-26T15:22:17.975Z,20.80
2019-02-26T15:24:48.919Z,18.20
2019-02-26T15:27:22.979Z,19.65
2019-02-26T15:29:54.887Z,22.60
2019-02-26T15:32:25.302Z,21.70
2019-02-26T15:34:58.789Z,20.50
2019-02-26T15:40:19.463Z,20.85
2019-02-26T15:42:56.297Z,21.12
2019-02-26T15:45:24.598Z,20.08
2019-02-26T15:47:53.633Z,21.50
2019-02-26T15:50:22.605Z,20.10
2019-02-26T15:52:53.659Z,19.80
2019-02-26T15:55:25.935Z,22.22
2019-02-26T15:57:56.031Z,19.65
2019-02-26T16:00:25.465Z,20.00
2019-02-26T16:02:59.350Z,19.67
2019-02-26T16:05:32.917Z,23.18
2019-02-26T16:08:02.223Z,20.92
2019-02-26T16:10:31.191Z,20.15
2019-02-26T16:13:08.174Z,22.20
2019-02-26T16:15:39.030Z,23.38
2019-02-26T16:18:08.097Z,18.82
2019-02-26T16:20:37.599Z,23.05
2019-02-26T16:23:09.842Z,21.73
2019-02-26T16:25:38.803Z,20.85
2019-02-26T16:28:07.828Z,23.23
2019-02-26T16:30:38.718Z,22.82
2019-02-26T16:33:14.350Z,23.30
2019-02-26T16:35:49.874Z,20.10
2019-02-26T16:38:20.472Z,23.20
2019-02-26T16:40:52.578Z,22.58
2019-02-26T16:43:27.727Z,21.30
2019-02-26T16:45:59.244Z,22.85
2019-02-26T16:48:28.272Z,24.12
2019-02-26T16:50:59.023Z,22.90
2019-02-26T16:53:28.263Z,25.20
2019-02-26T16:55:57.234Z,24.12
2019-02-26T16:58:29.212Z,22.45
2019-02-26T17:00:58.146Z,24.02
2019-02-26T17:03:27.390Z,25.72
2019-02-26T17:05:57.534Z,25.05
2019-02-26T17:08:30.842Z,24.15
2019-02-26T17:10:59.988Z,26.90
2019-02-26T17:13:28.926Z,29.43
2019-02-26T17:15:59.635Z,29.02
2019-02-26T17:18:33.721Z,27.60
2019-02-26T17:21:04.338Z,28.05
2019-02-26T17:23:33.578Z,27.77
2019-02-26T17:26:06.628Z,26.20
2019-02-26T17:28:38.631Z,24.90
2019-02-26T17:31:12.513Z,25.35
2019-02-26T17:33:41.487Z,24.02
2019-02-26T17:36:13.784Z,26.75
2019-02-26T17:38:42.858Z,26.62
2019-02-26T17:41:14.354Z,25.15
2019-02-26T17:43:43.319Z,26.20
2019-02-26T17:46:12.302Z,26.27
2019-02-26T17:48:43.671Z,25.88
2019-02-26T17:51:13.813Z,28.90
2019-02-26T17:53:45.715Z,28.07
2019-02-26T17:56:16.953Z,29.25
2019-02-26T17:58:46.007Z,31.73
2019-02-26T18:01:17.279Z,28.47
2019-02-26T18:03:46.281Z,30.30
2019-02-26T18:06:19.757Z,33.40
2019-02-26T18:08:50.113Z,32.20
2019-02-26T18:11:23.504Z,32.10
2019-02-26T18:13:51.557Z,32.38
2019-02-26T18:16:20.532Z,34.03
2019-02-26T18:18:54.242Z,31.93
2019-02-26T18:21:24.275Z,33.02
2019-02-26T18:26:21.521Z,34.95
2019-02-26T18:28:54.065Z,36.38
2019-02-26T18:31:26.632Z,34.60
2019-02-26T18:33:55.520Z,33.40
2019-02-26T18:36:26.305Z,36.73
2019-02-26T18:38:55.742Z,36.48
2019-02-26T18:41:26.989Z,36.17
2019-02-26T18:43:58.450Z,38.30
2019-02-26T18:46:33.304Z,36.70
2019-02-26T18:49:01.041Z,35.73
2019-02-26T18:51:30.269Z,41.25
2019-02-26T18:54:03.573Z,37.65
2019-02-26T18:56:36.788Z,40.00
2019-02-26T18:59:07.151Z,39.33
2019-02-26T19:01:36.122Z,41.37
2019-02-26T19:04:05.102Z,41.13
2019-02-26T19:06:34.127Z,40.92
2019-02-26T19:12:32.832Z,39.42
2019-02-26T19:15:01.937Z,36.95
2019-02-26T19:18:02.005Z,39.35
2019-02-26T19:20:29.750Z,42.98
2019-02-26T19:22:59.565Z,41.37
2019-02-26T19:27:57.147Z,42.15
2019-02-26T19:30:26.105Z,42.08
2019-02-26T19:32:57.324Z,49.23
2019-02-26T19:35:34.775Z,41.10
2019-02-26T19:38:06.421Z,42.30
2019-02-26T19:40:39.842Z,42.30
2019-02-26T19:43:09.961Z,43.30
2019-02-26T19:45:43.826Z,45.38
2019-02-26T19:48:12.262Z,46.60
2019-02-26T19:50:47.866Z,44.95
2019-02-26T19:53:16.155Z,43.87
2019-02-26T19:55:49.852Z,42.20
2019-02-26T20:01:11.205Z,41.30
2019-02-26T20:03:40.905Z,43.63
2019-02-26T20:06:13.764Z,40.17
2019-02-26T20:08:44.023Z,39.92
2019-02-26T20:11:18.210Z,43.00
2019-02-26T20:13:47.217Z,46.33
2019-02-26T20:16:16.202Z,45.25
2019-02-26T20:18:48.214Z,43.40
2019-02-26T20:21:19.661Z,41.68
2019-02-26T20:23:49.214Z,42.55
2019-02-26T20:26:18.190Z,41.83
2019-02-26T20:28:49.570Z,37.85
2019-02-26T20:31:21.939Z,40.52
2019-02-26T20:33:51.916Z,40.83
2019-02-26T20:36:23.229Z,41.65
2019-02-26T20:38:53.838Z,40.75
2019-02-26T20:41:25.318Z,39.80
2019-02-26T20:43:54.302Z,40.45
2019-02-26T20:46:25.673Z,38.98
2019-02-26T20:48:56.758Z,40.75
2019-02-26T20:51:27.223Z,44.42
2019-02-26T20:53:58.645Z,39.18
2019-02-26T20:56:28.562Z,41.18
2019-02-26T20:59:00.108Z,41.70
2019-02-26T21:01:32.558Z,44.83
2019-02-26T21:04:01.496Z,42.15
2019-02-26T21:06:34.177Z,45.08
2019-02-26T21:09:07.105Z,46.05
2019-02-26T21:11:41.374Z,38.58
2019-02-26T21:14:10.402Z,44.48
2019-02-26T21:16:39.386Z,44.73
2019-02-26T21:19:24.007Z,45.33
2019-02-26T21:21:49.144Z,40.65
2019-02-26T21:24:19.077Z,48.73
2019-02-26T21:26:52.664Z,40.38
2019-02-26T21:29:21.145Z,44.95
2019-02-26T21:31:52.079Z,42.73
2019-02-26T21:34:24.491Z,41.95
2019-02-26T21:36:53.537Z,42.75
2019-02-26T21:39:22.611Z,40.52
2019-02-26T21:41:56.390Z,42.67
2019-02-26T21:44:26.656Z,39.83
2019-02-26T21:46:56.203Z,47.35
2019-02-26T21:51:59.810Z,39.92
2019-02-26T21:54:28.771Z,40.83
2019-02-26T21:56:59.524Z,43.48
2019-02-26T21:59:32.570Z,44.13
2019-02-26T22:02:00.991Z,45.92
2019-02-26T22:04:31.949Z,44.48
2019-02-26T22:07:03.957Z,43.17
2019-02-26T22:09:32.285Z,44.23
2019-02-26T22:12:01.835Z,42.45
2019-02-26T22:14:30.949Z,38.63
2019-02-26T22:17:01.451Z,44.23
2019-02-26T22:19:30.453Z,44.25
2019-02-26T22:21:59.458Z,49.18
2019-02-26T22:24:29.927Z,43.30
2019-02-26T22:27:00.322Z,42.58
2019-02-26T22:29:33.917Z,42.78
2019-02-26T22:32:02.779Z,40.63
2019-02-26T22:34:32.468Z,44.58
2019-02-26T22:37:07.118Z,45.73
2019-02-26T22:39:35.606Z,44.83
2019-02-26T22:42:09.432Z,43.33
2019-02-26T22:44:36.851Z,43.55
2019-02-26T22:47:08.740Z,39.53
2019-02-26T22:49:37.715Z,40.83
2019-02-26T22:52:08.934Z,45.08
2019-02-26T22:54:42.770Z,41.45
2019-02-26T22:57:14.264Z,42.53
2019-02-26T23:00:02.238Z,40.20
2019-02-26T23:02:32.814Z,45.10
2019-02-26T23:05:05.015Z,43.20
2019-02-26T23:07:39.384Z,43.98
2019-02-26T23:10:13.910Z,45.85
2019-02-26T23:12:43.510Z,42.80
2019-02-26T23:15:12.637Z,41.35
2019-02-26T23:17:47.050Z,48.98
2019-02-26T23:20:16.290Z,43.10
2019-02-26T23:22:45.256Z,42.90
2019-02-26T23:25:14.620Z,44.20
2019-02-26T23:27:46.134Z,41.75
2019-02-26T23:30:16.330Z,41.53
2019-02-26T23:32:45.500Z,42.83
2019-02-26T23:35:14.840Z,43.75
2019-02-26T23:37:43.807Z,41.37
2019-02-26T23:40:16.590Z,45.52
2019-02-26T23:42:45.569Z,42.73
2019-02-26T23:45:15.480Z,41.48
2019-02-26T23:47:47.482Z,41.35
2019-02-26T23:50:16.564Z,45.12
2019-02-26T23:52:45.816Z,42.35
2019-02-26T23:55:15.018Z,43.00
2019-02-26T23:57:44.050Z,38.85
